sensor_id;sensor_type;location;lat;lon;timestamp;P1;durP1;ratioP1;P2;durP2;ratioP2
31306;SDS011;17935;51.120;13.132;2023-07-13T00:00:48;4.97;;;2.03;;
31306;SDS011;17935;51.120;13.132;2023-07-13T00:03:13;2.88;;;1.85;;
31306;SDS011;17935;51.120;13.132;2023-07-13T00:05:40;8.48;;;2.63;;
31306;SDS011;17935;51.120;13.132;2023-07-13T00:08:06;12.48;;;2.60;;
31306;SDS011;17935;51.120;13.132;2023-07-13T00:10:33;4.53;;;1.70;;
31306;SDS011;17935;51.120;13.132;2023-07-13T00:12:59;2.50;;;1.73;;
31306;SDS011;17935;51.120;13.132;2023-07-13T00:15:26;3.90;;;1.60;;
31306;SDS011;17935;51.120;13.132;2023-07-13T00:17:52;1.92;;;1.65;;
31306;SDS011;17935;51.120;13.132;2023-07-13T00:20:19;4.55;;;1.92;;
31306;SDS011;17935;51.120;13.132;2023-07-13T00:22:47;2.72;;;2.00;;
31306;SDS011;17935;51.120;13.132;2023-07-13T00:25:13;2.55;;;2.00;;
31306;SDS011;17935;51.120;13.132;2023-07-13T00:27:38;4.32;;;1.92;;
31306;SDS011;17935;51.120;13.132;2023-07-13T00:30:05;1.98;;;1.65;;
31306;SDS011;17935;51.120;13.132;2023-07-13T00:32:31;4.25;;;1.70;;
31306;SDS011;17935;51.120;13.132;2023-07-13T00:34:57;3.53;;;1.98;;
31306;SDS011;17935;51.120;13.132;2023-07-13T00:37:25;6.03;;;1.83;;
31306;SDS011;17935;51.120;13.132;2023-07-13T00:39:51;3.45;;;2.00;;
31306;SDS011;17935;51.120;13.132;2023-07-13T00:42:17;4.75;;;2.42;;
31306;SDS011;17935;51.120;13.132;2023-07-13T00:45:00;3.58;;;1.90;;
31306;SDS011;17935;51.120;13.132;2023-07-13T00:47:26;5.32;;;2.67;;
31306;SDS011;17935;51.120;13.132;2023-07-13T00:49:52;5.13;;;2.05;;
31306;SDS011;17935;51.120;13.132;2023-07-13T00:52:18;5.95;;;1.98;;
31306;SDS011;17935;51.120;13.132;2023-07-13T00:54:45;2.03;;;1.80;;
31306;SDS011;17935;51.120;13.132;2023-07-13T00:57:12;4.53;;;2.08;;
31306;SDS011;17935;51.120;13.132;2023-07-13T00:59:41;2.55;;;2.15;;
31306;SDS011;17935;51.120;13.132;2023-07-13T01:02:07;4.43;;;2.15;;
31306;SDS011;17935;51.120;13.132;2023-07-13T01:04:33;4.18;;;2.20;;
31306;SDS011;17935;51.120;13.132;2023-07-13T01:07:00;5.75;;;2.10;;
31306;SDS011;17935;51.120;13.132;2023-07-13T01:09:26;4.07;;;2.15;;
31306;SDS011;17935;51.120;13.132;2023-07-13T01:11:52;2.33;;;1.85;;
31306;SDS011;17935;51.120;13.132;2023-07-13T01:14:18;3.15;;;2.10;;
31306;SDS011;17935;51.120;13.132;2023-07-13T01:16:45;6.22;;;1.95;;
31306;SDS011;17935;51.120;13.132;2023-07-13T01:19:18;2.88;;;2.03;;
31306;SDS011;17935;51.120;13.132;2023-07-13T01:21:51;4.43;;;2.13;;
31306;SDS011;17935;51.120;13.132;2023-07-13T01:24:18;4.95;;;2.08;;
31306;SDS011;17935;51.120;13.132;2023-07-13T01:26:44;9.25;;;2.05;;
31306;SDS011;17935;51.120;13.132;2023-07-13T01:29:10;4.70;;;1.85;;
31306;SDS011;17935;51.120;13.132;2023-07-13T01:31:36;6.07;;;1.80;;
31306;SDS011;17935;51.120;13.132;2023-07-13T01:34:01;1.95;;;1.85;;
31306;SDS011;17935;51.120;13.132;2023-07-13T01:36:28;5.05;;;2.10;;
31306;SDS011;17935;51.120;13.132;2023-07-13T01:38:53;2.80;;;2.28;;
31306;SDS011;17935;51.120;13.132;2023-07-13T01:41:20;3.65;;;2.17;;
31306;SDS011;17935;51.120;13.132;2023-07-13T01:43:46;2.05;;;1.85;;
31306;SDS011;17935;51.120;13.132;2023-07-13T01:46:12;4.28;;;2.15;;
31306;SDS011;17935;51.120;13.132;2023-07-13T01:48:38;2.38;;;2.17;;
31306;SDS011;17935;51.120;13.132;2023-07-13T01:51:03;4.38;;;2.13;;
31306;SDS011;17935;51.120;13.132;2023-07-13T01:53:29;2.90;;;2.00;;
31306;SDS011;17935;51.120;13.132;2023-07-13T01:55:57;5.78;;;2.55;;
31306;SDS011;17935;51.120;13.132;2023-07-13T01:58:23;8.27;;;2.20;;
31306;SDS011;17935;51.120;13.132;2023-07-13T02:00:49;4.68;;;2.20;;
31306;SDS011;17935;51.120;13.132;2023-07-13T02:03:15;3.95;;;1.90;;
31306;SDS011;17935;51.120;13.132;2023-07-13T02:05:43;6.72;;;2.25;;
31306;SDS011;17935;51.120;13.132;2023-07-13T02:08:09;5.80;;;2.70;;
31306;SDS011;17935;51.120;13.132;2023-07-13T02:10:36;2.20;;;2.00;;
31306;SDS011;17935;51.120;13.132;2023-07-13T02:13:04;3.55;;;2.10;;
31306;SDS011;17935;51.120;13.132;2023-07-13T02:15:30;3.25;;;2.10;;
31306;SDS011;17935;51.120;13.132;2023-07-13T02:17:56;7.60;;;3.15;;
31306;SDS011;17935;51.120;13.132;2023-07-13T02:20:23;3.10;;;2.10;;
31306;SDS011;17935;51.120;13.132;2023-07-13T02:22:49;2.80;;;2.08;;
31306;SDS011;17935;51.120;13.132;2023-07-13T02:25:15;10.60;;;2.60;;
31306;SDS011;17935;51.120;13.132;2023-07-13T02:27:41;3.50;;;2.65;;
31306;SDS011;17935;51.120;13.132;2023-07-13T02:30:07;2.95;;;2.65;;
31306;SDS011;17935;51.120;13.132;2023-07-13T02:32:33;5.60;;;2.50;;
31306;SDS011;17935;51.120;13.132;2023-07-13T02:35:00;3.92;;;1.95;;
31306;SDS011;17935;51.120;13.132;2023-07-13T02:37:26;3.20;;;1.75;;
31306;SDS011;17935;51.120;13.132;2023-07-13T02:39:52;2.05;;;1.88;;
31306;SDS011;17935;51.120;13.132;2023-07-13T02:42:19;2.30;;;1.90;;
31306;SDS011;17935;51.120;13.132;2023-07-13T02:44:45;2.85;;;2.00;;
31306;SDS011;17935;51.120;13.132;2023-07-13T02:47:11;2.20;;;2.00;;
31306;SDS011;17935;51.120;13.132;2023-07-13T02:49:38;4.40;;;2.03;;
31306;SDS011;17935;51.120;13.132;2023-07-13T02:52:04;2.00;;;1.90;;
31306;SDS011;17935;51.120;13.132;2023-07-13T02:54:30;2.35;;;2.15;;
31306;SDS011;17935;51.120;13.132;2023-07-13T02:56:56;6.90;;;2.40;;
31306;SDS011;17935;51.120;13.132;2023-07-13T02:59:22;4.65;;;1.92;;
31306;SDS011;17935;51.120;13.132;2023-07-13T03:01:48;4.63;;;2.40;;
31306;SDS011;17935;51.120;13.132;2023-07-13T03:04:14;5.07;;;2.63;;
31306;SDS011;17935;51.120;13.132;2023-07-13T03:06:44;3.85;;;2.53;;
31306;SDS011;17935;51.120;13.132;2023-07-13T03:09:10;5.60;;;2.60;;
31306;SDS011;17935;51.120;13.132;2023-07-13T03:11:37;7.35;;;2.92;;
31306;SDS011;17935;51.120;13.132;2023-07-13T03:14:03;3.92;;;2.80;;
31306;SDS011;17935;51.120;13.132;2023-07-13T03:16:29;4.72;;;2.65;;
31306;SDS011;17935;51.120;13.132;2023-07-13T03:18:55;3.78;;;2.60;;
31306;SDS011;17935;51.120;13.132;2023-07-13T03:21:21;4.28;;;2.47;;
31306;SDS011;17935;51.120;13.132;2023-07-13T03:23:47;2.13;;;2.03;;
31306;SDS011;17935;51.120;13.132;2023-07-13T03:26:15;2.78;;;2.22;;
31306;SDS011;17935;51.120;13.132;2023-07-13T03:28:41;3.47;;;2.05;;
31306;SDS011;17935;51.120;13.132;2023-07-13T03:31:08;2.85;;;2.40;;
31306;SDS011;17935;51.120;13.132;2023-07-13T03:33:35;2.05;;;1.90;;
31306;SDS011;17935;51.120;13.132;2023-07-13T03:36:01;3.80;;;1.90;;
31306;SDS011;17935;51.120;13.132;2023-07-13T03:38:28;4.03;;;2.15;;
31306;SDS011;17935;51.120;13.132;2023-07-13T03:40:54;3.33;;;1.73;;
31306;SDS011;17935;51.120;13.132;2023-07-13T03:43:19;3.35;;;2.00;;
31306;SDS011;17935;51.120;13.132;2023-07-13T03:45:46;6.40;;;3.22;;
31306;SDS011;17935;51.120;13.132;2023-07-13T03:48:12;5.18;;;2.40;;
31306;SDS011;17935;51.120;13.132;2023-07-13T03:50:38;4.25;;;2.30;;
31306;SDS011;17935;51.120;13.132;2023-07-13T03:53:04;4.18;;;2.10;;
31306;SDS011;17935;51.120;13.132;2023-07-13T03:55:30;4.57;;;2.00;;
31306;SDS011;17935;51.120;13.132;2023-07-13T03:58:00;3.05;;;2.17;;
31306;SDS011;17935;51.120;13.132;2023-07-13T04:00:26;3.60;;;2.28;;
31306;SDS011;17935;51.120;13.132;2023-07-13T04:02:52;4.38;;;2.38;;
31306;SDS011;17935;51.120;13.132;2023-07-13T04:05:18;3.22;;;2.13;;
31306;SDS011;17935;51.120;13.132;2023-07-13T04:07:44;3.08;;;2.25;;
31306;SDS011;17935;51.120;13.132;2023-07-13T04:10:10;8.38;;;2.30;;
31306;SDS011;17935;51.120;13.132;2023-07-13T04:12:36;4.93;;;2.38;;
31306;SDS011;17935;51.120;13.132;2023-07-13T04:15:02;2.55;;;1.95;;
31306;SDS011;17935;51.120;13.132;2023-07-13T04:17:28;3.85;;;1.85;;
31306;SDS011;17935;51.120;13.132;2023-07-13T04:19:54;2.45;;;1.83;;
31306;SDS011;17935;51.120;13.132;2023-07-13T04:22:20;4.97;;;2.00;;
31306;SDS011;17935;51.120;13.132;2023-07-13T04:24:46;7.72;;;2.80;;
31306;SDS011;17935;51.120;13.132;2023-07-13T04:27:12;4.57;;;2.30;;
31306;SDS011;17935;51.120;13.132;2023-07-13T04:29:38;3.60;;;2.05;;
31306;SDS011;17935;51.120;13.132;2023-07-13T04:32:04;3.05;;;2.10;;
31306;SDS011;17935;51.120;13.132;2023-07-13T04:34:30;9.13;;;2.17;;
31306;SDS011;17935;51.120;13.132;2023-07-13T04:36:56;1.83;;;1.70;;
31306;SDS011;17935;51.120;13.132;2023-07-13T04:39:22;3.60;;;2.08;;
31306;SDS011;17935;51.120;13.132;2023-07-13T04:41:48;4.40;;;1.83;;
31306;SDS011;17935;51.120;13.132;2023-07-13T04:44:14;2.42;;;1.90;;
31306;SDS011;17935;51.120;13.132;2023-07-13T04:46:40;4.82;;;2.33;;
31306;SDS011;17935;51.120;13.132;2023-07-13T04:49:06;9.15;;;2.65;;
31306;SDS011;17935;51.120;13.132;2023-07-13T04:51:32;2.90;;;1.77;;
31306;SDS011;17935;51.120;13.132;2023-07-13T04:53:58;6.20;;;2.28;;
31306;SDS011;17935;51.120;13.132;2023-07-13T04:56:24;7.90;;;2.30;;
31306;SDS011;17935;51.120;13.132;2023-07-13T04:58:50;8.07;;;2.40;;
31306;SDS011;17935;51.120;13.132;2023-07-13T05:01:16;3.33;;;1.90;;
31306;SDS011;17935;51.120;13.132;2023-07-13T05:03:42;7.40;;;2.20;;
31306;SDS011;17935;51.120;13.132;2023-07-13T05:06:08;3.58;;;2.17;;
31306;SDS011;17935;51.120;13.132;2023-07-13T05:08:38;3.08;;;2.00;;
31306;SDS011;17935;51.120;13.132;2023-07-13T05:11:04;3.20;;;1.73;;
31306;SDS011;17935;51.120;13.132;2023-07-13T05:13:32;4.03;;;2.08;;
31306;SDS011;17935;51.120;13.132;2023-07-13T05:15:58;5.90;;;1.73;;
31306;SDS011;17935;51.120;13.132;2023-07-13T05:18:25;5.28;;;1.63;;
31306;SDS011;17935;51.120;13.132;2023-07-13T05:20:56;2.88;;;1.83;;
31306;SDS011;17935;51.120;13.132;2023-07-13T05:23:23;3.22;;;1.77;;
31306;SDS011;17935;51.120;13.132;2023-07-13T05:25:48;2.63;;;1.65;;
31306;SDS011;17935;51.120;13.132;2023-07-13T05:28:14;2.50;;;1.65;;
31306;SDS011;17935;51.120;13.132;2023-07-13T05:30:44;2.75;;;1.67;;
31306;SDS011;17935;51.120;13.132;2023-07-13T05:33:11;3.92;;;1.55;;
31306;SDS011;17935;51.120;13.132;2023-07-13T05:35:37;6.35;;;1.55;;
31306;SDS011;17935;51.120;13.132;2023-07-13T05:38:03;4.32;;;1.88;;
31306;SDS011;17935;51.120;13.132;2023-07-13T05:40:29;3.63;;;1.63;;
31306;SDS011;17935;51.120;13.132;2023-07-13T05:42:55;4.65;;;2.10;;
31306;SDS011;17935;51.120;13.132;2023-07-13T05:45:20;5.20;;;1.50;;
31306;SDS011;17935;51.120;13.132;2023-07-13T05:47:47;4.22;;;1.48;;
31306;SDS011;17935;51.120;13.132;2023-07-13T05:50:12;1.42;;;1.13;;
31306;SDS011;17935;51.120;13.132;2023-07-13T05:52:38;3.30;;;1.40;;
31306;SDS011;17935;51.120;13.132;2023-07-13T05:55:04;1.40;;;1.17;;
31306;SDS011;17935;51.120;13.132;2023-07-13T05:57:30;3.83;;;1.42;;
31306;SDS011;17935;51.120;13.132;2023-07-13T05:59:56;3.78;;;1.50;;
31306;SDS011;17935;51.120;13.132;2023-07-13T06:02:22;4.70;;;1.40;;
31306;SDS011;17935;51.120;13.132;2023-07-13T06:04:48;3.42;;;1.33;;
31306;SDS011;17935;51.120;13.132;2023-07-13T06:07:14;7.03;;;2.15;;
31306;SDS011;17935;51.120;13.132;2023-07-13T06:09:40;3.42;;;1.60;;
31306;SDS011;17935;51.120;13.132;2023-07-13T06:12:06;6.35;;;1.70;;
31306;SDS011;17935;51.120;13.132;2023-07-13T06:14:32;2.38;;;1.10;;
31306;SDS011;17935;51.120;13.132;2023-07-13T06:16:58;1.55;;;1.13;;
31306;SDS011;17935;51.120;13.132;2023-07-13T06:19:24;4.50;;;1.15;;
31306;SDS011;17935;51.120;13.132;2023-07-13T06:21:50;2.25;;;1.35;;
31306;SDS011;17935;51.120;13.132;2023-07-13T06:24:16;3.90;;;1.35;;
31306;SDS011;17935;51.120;13.132;2023-07-13T06:26:42;1.98;;;1.05;;
31306;SDS011;17935;51.120;13.132;2023-07-13T06:29:08;4.90;;;1.27;;
31306;SDS011;17935;51.120;13.132;2023-07-13T06:31:34;2.08;;;0.90;;
31306;SDS011;17935;51.120;13.132;2023-07-13T06:34:00;2.20;;;1.30;;
31306;SDS011;17935;51.120;13.132;2023-07-13T06:36:26;5.85;;;1.10;;
31306;SDS011;17935;51.120;13.132;2023-07-13T06:38:51;3.97;;;1.25;;
31306;SDS011;17935;51.120;13.132;2023-07-13T06:41:18;4.75;;;1.38;;
31306;SDS011;17935;51.120;13.132;2023-07-13T06:43:44;3.35;;;1.42;;
31306;SDS011;17935;51.120;13.132;2023-07-13T06:46:10;7.20;;;1.52;;
31306;SDS011;17935;51.120;13.132;2023-07-13T06:48:36;4.97;;;1.20;;
31306;SDS011;17935;51.120;13.132;2023-07-13T06:51:02;2.65;;;1.30;;
31306;SDS011;17935;51.120;13.132;2023-07-13T06:53:28;3.45;;;1.75;;
31306;SDS011;17935;51.120;13.132;2023-07-13T06:55:54;6.53;;;1.35;;
31306;SDS011;17935;51.120;13.132;2023-07-13T06:58:20;2.38;;;1.40;;
31306;SDS011;17935;51.120;13.132;2023-07-13T07:00:49;2.00;;;1.30;;
31306;SDS011;17935;51.120;13.132;2023-07-13T07:03:15;2.42;;;1.20;;
31306;SDS011;17935;51.120;13.132;2023-07-13T07:05:41;5.55;;;1.75;;
31306;SDS011;17935;51.120;13.132;2023-07-13T07:08:07;3.63;;;1.48;;
31306;SDS011;17935;51.120;13.132;2023-07-13T07:10:33;3.33;;;1.48;;
31306;SDS011;17935;51.120;13.132;2023-07-13T07:12:59;5.15;;;1.48;;
31306;SDS011;17935;51.120;13.132;2023-07-13T07:15:26;2.40;;;1.35;;
31306;SDS011;17935;51.120;13.132;2023-07-13T07:17:52;2.28;;;1.42;;
31306;SDS011;17935;51.120;13.132;2023-07-13T07:20:18;4.82;;;1.75;;
31306;SDS011;17935;51.120;13.132;2023-07-13T07:22:45;8.05;;;1.75;;
31306;SDS011;17935;51.120;13.132;2023-07-13T07:25:11;4.53;;;1.60;;
31306;SDS011;17935;51.120;13.132;2023-07-13T07:27:37;3.70;;;1.40;;
31306;SDS011;17935;51.120;13.132;2023-07-13T07:30:03;3.75;;;1.13;;
31306;SDS011;17935;51.120;13.132;2023-07-13T07:32:29;3.60;;;1.60;;
31306;SDS011;17935;51.120;13.132;2023-07-13T07:34:56;3.05;;;1.40;;
31306;SDS011;17935;51.120;13.132;2023-07-13T07:37:22;1.60;;;1.00;;
31306;SDS011;17935;51.120;13.132;2023-07-13T07:39:48;5.38;;;1.80;;
31306;SDS011;17935;51.120;13.132;2023-07-13T07:42:15;8.48;;;1.65;;
31306;SDS011;17935;51.120;13.132;2023-07-13T07:44:41;4.63;;;1.70;;
31306;SDS011;17935;51.120;13.132;2023-07-13T07:47:07;3.30;;;1.40;;
31306;SDS011;17935;51.120;13.132;2023-07-13T07:49:34;2.60;;;1.58;;
31306;SDS011;17935;51.120;13.132;2023-07-13T07:52:00;4.78;;;1.17;;
31306;SDS011;17935;51.120;13.132;2023-07-13T07:54:26;3.50;;;1.50;;
31306;SDS011;17935;51.120;13.132;2023-07-13T07:56:52;6.10;;;1.80;;
31306;SDS011;17935;51.120;13.132;2023-07-13T07:59:18;5.20;;;1.30;;
31306;SDS011;17935;51.120;13.132;2023-07-13T08:01:44;13.15;;;3.20;;
31306;SDS011;17935;51.120;13.132;2023-07-13T08:04:12;5.07;;;1.50;;
31306;SDS011;17935;51.120;13.132;2023-07-13T08:06:38;2.03;;;1.17;;
31306;SDS011;17935;51.120;13.132;2023-07-13T08:09:04;4.07;;;1.23;;
31306;SDS011;17935;51.120;13.132;2023-07-13T08:11:30;5.20;;;1.58;;
31306;SDS011;17935;51.120;13.132;2023-07-13T08:13:56;2.38;;;1.20;;
31306;SDS011;17935;51.120;13.132;2023-07-13T08:16:23;5.82;;;1.30;;
31306;SDS011;17935;51.120;13.132;2023-07-13T08:18:49;2.13;;;0.85;;
31306;SDS011;17935;51.120;13.132;2023-07-13T08:21:15;3.78;;;1.38;;
31306;SDS011;17935;51.120;13.132;2023-07-13T08:23:41;5.07;;;1.48;;
31306;SDS011;17935;51.120;13.132;2023-07-13T08:26:07;2.25;;;1.48;;
31306;SDS011;17935;51.120;13.132;2023-07-13T08:28:33;2.88;;;1.30;;
31306;SDS011;17935;51.120;13.132;2023-07-13T08:31:00;17.70;;;1.73;;
31306;SDS011;17935;51.120;13.132;2023-07-13T08:33:26;2.38;;;1.30;;
31306;SDS011;17935;51.120;13.132;2023-07-13T08:35:52;3.22;;;1.15;;
31306;SDS011;17935;51.120;13.132;2023-07-13T08:38:18;2.63;;;1.20;;
31306;SDS011;17935;51.120;13.132;2023-07-13T08:40:45;1.95;;;1.35;;
31306;SDS011;17935;51.120;13.132;2023-07-13T08:43:16;4.00;;;1.30;;
31306;SDS011;17935;51.120;13.132;2023-07-13T08:46:05;3.70;;;1.38;;
31306;SDS011;17935;51.120;13.132;2023-07-13T08:48:30;1.40;;;0.85;;
31306;SDS011;17935;51.120;13.132;2023-07-13T08:51:09;3.13;;;1.30;;
31306;SDS011;17935;51.120;13.132;2023-07-13T08:53:38;3.20;;;1.27;;
31306;SDS011;17935;51.120;13.132;2023-07-13T08:56:05;1.25;;;1.00;;
31306;SDS011;17935;51.120;13.132;2023-07-13T08:58:35;3.78;;;1.30;;
31306;SDS011;17935;51.120;13.132;2023-07-13T09:01:03;4.22;;;1.20;;
31306;SDS011;17935;51.120;13.132;2023-07-13T09:03:37;3.00;;;1.23;;
31306;SDS011;17935;51.120;13.132;2023-07-13T09:06:06;2.95;;;1.38;;
31306;SDS011;17935;51.120;13.132;2023-07-13T09:09:20;3.50;;;1.33;;
31306;SDS011;17935;51.120;13.132;2023-07-13T09:11:24;3.10;;;1.13;;
31306;SDS011;17935;51.120;13.132;2023-07-13T09:16:19;2.83;;;1.40;;
31306;SDS011;17935;51.120;13.132;2023-07-13T09:18:47;4.55;;;1.30;;
31306;SDS011;17935;51.120;13.132;2023-07-13T09:21:18;5.25;;;1.50;;
31306;SDS011;17935;51.120;13.132;2023-07-13T09:23:46;4.85;;;1.30;;
31306;SDS011;17935;51.120;13.132;2023-07-13T09:26:17;6.25;;;1.50;;
31306;SDS011;17935;51.120;13.132;2023-07-13T09:28:45;4.32;;;1.08;;
31306;SDS011;17935;51.120;13.132;2023-07-13T09:31:16;4.90;;;1.60;;
31306;SDS011;17935;51.120;13.132;2023-07-13T09:33:43;3.00;;;1.42;;
31306;SDS011;17935;51.120;13.132;2023-07-13T09:38:42;4.85;;;1.50;;
31306;SDS011;17935;51.120;13.132;2023-07-13T09:41:23;3.75;;;1.52;;
31306;SDS011;17935;51.120;13.132;2023-07-13T09:46:51;5.00;;;1.20;;
31306;SDS011;17935;51.120;13.132;2023-07-13T09:49:18;2.10;;;1.27;;
31306;SDS011;17935;51.120;13.132;2023-07-13T09:51:44;2.85;;;1.40;;
31306;SDS011;17935;51.120;13.132;2023-07-13T09:54:18;1.70;;;1.20;;
31306;SDS011;17935;51.120;13.132;2023-07-13T09:56:45;4.60;;;1.02;;
31306;SDS011;17935;51.120;13.132;2023-07-13T09:59:21;4.35;;;1.33;;
31306;SDS011;17935;51.120;13.132;2023-07-13T10:01:48;2.55;;;1.30;;
31306;SDS011;17935;51.120;13.132;2023-07-13T10:04:17;2.47;;;1.40;;
31306;SDS011;17935;51.120;13.132;2023-07-13T10:06:44;3.20;;;1.52;;
31306;SDS011;17935;51.120;13.132;2023-07-13T10:09:10;2.22;;;1.38;;
31306;SDS011;17935;51.120;13.132;2023-07-13T10:11:39;4.18;;;1.70;;
31306;SDS011;17935;51.120;13.132;2023-07-13T10:14:10;2.28;;;1.35;;
31306;SDS011;17935;51.120;13.132;2023-07-13T10:16:36;4.32;;;1.40;;
31306;SDS011;17935;51.120;13.132;2023-07-13T10:19:13;5.30;;;2.05;;
31306;SDS011;17935;51.120;13.132;2023-07-13T10:21:43;4.25;;;1.83;;
31306;SDS011;17935;51.120;13.132;2023-07-13T10:24:27;5.68;;;1.40;;
31306;SDS011;17935;51.120;13.132;2023-07-13T10:29:39;2.53;;;1.60;;
31306;SDS011;17935;51.120;13.132;2023-07-13T10:32:11;3.53;;;1.50;;
31306;SDS011;17935;51.120;13.132;2023-07-13T10:34:37;2.22;;;1.25;;
31306;SDS011;17935;51.120;13.132;2023-07-13T10:37:04;2.28;;;1.70;;
31306;SDS011;17935;51.120;13.132;2023-07-13T10:39:31;2.38;;;1.35;;
31306;SDS011;17935;51.120;13.132;2023-07-13T10:42:00;3.67;;;1.80;;
31306;SDS011;17935;51.120;13.132;2023-07-13T10:44:29;2.05;;;1.30;;
31306;SDS011;17935;51.120;13.132;2023-07-13T10:46:57;4.05;;;1.80;;
31306;SDS011;17935;51.120;13.132;2023-07-13T10:49:24;4.85;;;1.80;;
31306;SDS011;17935;51.120;13.132;2023-07-13T10:51:50;3.72;;;1.50;;
31306;SDS011;17935;51.120;13.132;2023-07-13T10:56:43;5.00;;;1.50;;
31306;SDS011;17935;51.120;13.132;2023-07-13T11:01:55;6.28;;;1.90;;
31306;SDS011;17935;51.120;13.132;2023-07-13T11:04:21;7.47;;;1.92;;
31306;SDS011;17935;51.120;13.132;2023-07-13T11:06:50;4.50;;;1.40;;
31306;SDS011;17935;51.120;13.132;2023-07-13T11:12:06;6.45;;;2.28;;
31306;SDS011;17935;51.120;13.132;2023-07-13T11:17:23;4.85;;;1.98;;
31306;SDS011;17935;51.120;13.132;2023-07-13T11:19:47;6.65;;;2.25;;
31306;SDS011;17935;51.120;13.132;2023-07-13T11:22:21;2.30;;;1.38;;
31306;SDS011;17935;51.120;13.132;2023-07-13T11:27:21;4.35;;;1.30;;
31306;SDS011;17935;51.120;13.132;2023-07-13T11:29:48;4.25;;;1.23;;
31306;SDS011;17935;51.120;13.132;2023-07-13T11:32:30;3.42;;;1.40;;
31306;SDS011;17935;51.120;13.132;2023-07-13T11:34:56;2.38;;;1.50;;
31306;SDS011;17935;51.120;13.132;2023-07-13T11:37:23;2.03;;;1.20;;
31306;SDS011;17935;51.120;13.132;2023-07-13T11:39:50;2.65;;;1.50;;
31306;SDS011;17935;51.120;13.132;2023-07-13T11:42:18;4.45;;;1.30;;
31306;SDS011;17935;51.120;13.132;2023-07-13T11:44:48;9.18;;;1.58;;
31306;SDS011;17935;51.120;13.132;2023-07-13T11:47:17;3.70;;;1.45;;
31306;SDS011;17935;51.120;13.132;2023-07-13T11:49:47;6.25;;;1.85;;
31306;SDS011;17935;51.120;13.132;2023-07-13T11:52:15;8.43;;;1.80;;
31306;SDS011;17935;51.120;13.132;2023-07-13T11:54:49;3.03;;;1.75;;
31306;SDS011;17935;51.120;13.132;2023-07-13T11:57:29;1.95;;;1.02;;
31306;SDS011;17935;51.120;13.132;2023-07-13T11:59:59;20.63;;;2.47;;
31306;SDS011;17935;51.120;13.132;2023-07-13T12:02:29;11.35;;;1.80;;
31306;SDS011;17935;51.120;13.132;2023-07-13T12:04:56;3.20;;;1.40;;
31306;SDS011;17935;51.120;13.132;2023-07-13T12:07:23;7.53;;;1.52;;
31306;SDS011;17935;51.120;13.132;2023-07-13T12:09:49;3.83;;;1.50;;
31306;SDS011;17935;51.120;13.132;2023-07-13T12:12:18;5.85;;;1.85;;
31306;SDS011;17935;51.120;13.132;2023-07-13T12:14:45;6.88;;;1.50;;
31306;SDS011;17935;51.120;13.132;2023-07-13T12:17:13;9.18;;;1.40;;
31306;SDS011;17935;51.120;13.132;2023-07-13T12:19:40;5.70;;;1.35;;
31306;SDS011;17935;51.120;13.132;2023-07-13T12:22:08;2.13;;;1.33;;
31306;SDS011;17935;51.120;13.132;2023-07-13T12:24:35;7.90;;;2.10;;
31306;SDS011;17935;51.120;13.132;2023-07-13T12:27:02;5.53;;;2.22;;
31306;SDS011;17935;51.120;13.132;2023-07-13T12:29:29;8.43;;;1.30;;
31306;SDS011;17935;51.120;13.132;2023-07-13T12:31:55;5.78;;;1.83;;
31306;SDS011;17935;51.120;13.132;2023-07-13T12:34:22;4.13;;;1.60;;
31306;SDS011;17935;51.120;13.132;2023-07-13T12:36:53;3.58;;;1.77;;
31306;SDS011;17935;51.120;13.132;2023-07-13T12:41:49;6.00;;;1.58;;
31306;SDS011;17935;51.120;13.132;2023-07-13T12:44:16;3.88;;;1.95;;
31306;SDS011;17935;51.120;13.132;2023-07-13T12:46:53;5.80;;;1.30;;
31306;SDS011;17935;51.120;13.132;2023-07-13T12:49:21;3.45;;;1.52;;
31306;SDS011;17935;51.120;13.132;2023-07-13T12:51:49;5.05;;;1.75;;
31306;SDS011;17935;51.120;13.132;2023-07-13T12:54:17;8.07;;;1.88;;
31306;SDS011;17935;51.120;13.132;2023-07-13T12:56:44;5.47;;;1.60;;
31306;SDS011;17935;51.120;13.132;2023-07-13T12:59:15;1.95;;;1.50;;
31306;SDS011;17935;51.120;13.132;2023-07-13T13:01:42;5.50;;;1.77;;
31306;SDS011;17935;51.120;13.132;2023-07-13T13:04:08;4.55;;;1.52;;
31306;SDS011;17935;51.120;13.132;2023-07-13T13:06:36;19.17;;;3.33;;
31306;SDS011;17935;51.120;13.132;2023-07-13T13:09:02;3.00;;;1.52;;
31306;SDS011;17935;51.120;13.132;2023-07-13T13:11:30;3.38;;;1.33;;
31306;SDS011;17935;51.120;13.132;2023-07-13T13:13:56;5.00;;;1.55;;
31306;SDS011;17935;51.120;13.132;2023-07-13T13:16:23;7.43;;;2.08;;
31306;SDS011;17935;51.120;13.132;2023-07-13T13:18:57;6.28;;;1.58;;
31306;SDS011;17935;51.120;13.132;2023-07-13T13:21:25;2.13;;;1.40;;
31306;SDS011;17935;51.120;13.132;2023-07-13T13:23:51;6.30;;;1.42;;
31306;SDS011;17935;51.120;13.132;2023-07-13T13:26:18;6.82;;;1.67;;
31306;SDS011;17935;51.120;13.132;2023-07-13T13:28:44;7.90;;;1.40;;
31306;SDS011;17935;51.120;13.132;2023-07-13T13:31:12;8.05;;;1.25;;
31306;SDS011;17935;51.120;13.132;2023-07-13T13:33:39;3.47;;;1.48;;
31306;SDS011;17935;51.120;13.132;2023-07-13T13:36:13;3.60;;;1.50;;
31306;SDS011;17935;51.120;13.132;2023-07-13T13:38:40;4.13;;;1.52;;
31306;SDS011;17935;51.120;13.132;2023-07-13T13:41:08;6.20;;;1.65;;
31306;SDS011;17935;51.120;13.132;2023-07-13T13:43:35;4.13;;;1.52;;
31306;SDS011;17935;51.120;13.132;2023-07-13T13:46:01;4.22;;;1.40;;
31306;SDS011;17935;51.120;13.132;2023-07-13T13:48:33;3.55;;;1.38;;
31306;SDS011;17935;51.120;13.132;2023-07-13T13:51:00;13.02;;;0.90;;
31306;SDS011;17935;51.120;13.132;2023-07-13T13:53:26;3.53;;;1.23;;
31306;SDS011;17935;51.120;13.132;2023-07-13T13:55:53;7.90;;;1.38;;
31306;SDS011;17935;51.120;13.132;2023-07-13T13:58:19;1.80;;;1.08;;
31306;SDS011;17935;51.120;13.132;2023-07-13T14:00:45;4.18;;;1.00;;
31306;SDS011;17935;51.120;13.132;2023-07-13T14:03:15;4.90;;;1.42;;
31306;SDS011;17935;51.120;13.132;2023-07-13T14:05:43;2.22;;;1.17;;
31306;SDS011;17935;51.120;13.132;2023-07-13T14:08:13;3.53;;;1.25;;
31306;SDS011;17935;51.120;13.132;2023-07-13T14:10:40;2.85;;;1.05;;
31306;SDS011;17935;51.120;13.132;2023-07-13T14:13:07;4.07;;;1.08;;
31306;SDS011;17935;51.120;13.132;2023-07-13T14:15:42;5.22;;;1.10;;
31306;SDS011;17935;51.120;13.132;2023-07-13T14:18:08;1.27;;;0.80;;
31306;SDS011;17935;51.120;13.132;2023-07-13T14:20:34;1.70;;;1.13;;
31306;SDS011;17935;51.120;13.132;2023-07-13T14:23:00;5.05;;;1.20;;
31306;SDS011;17935;51.120;13.132;2023-07-13T14:25:26;2.63;;;0.95;;
31306;SDS011;17935;51.120;13.132;2023-07-13T14:27:57;3.00;;;1.23;;
31306;SDS011;17935;51.120;13.132;2023-07-13T14:30:24;2.97;;;1.15;;
31306;SDS011;17935;51.120;13.132;2023-07-13T14:32:50;2.47;;;1.15;;
31306;SDS011;17935;51.120;13.132;2023-07-13T14:35:20;5.18;;;1.05;;
31306;SDS011;17935;51.120;13.132;2023-07-13T14:37:48;4.50;;;1.23;;
31306;SDS011;17935;51.120;13.132;2023-07-13T14:40:15;3.13;;;1.20;;
31306;SDS011;17935;51.120;13.132;2023-07-13T14:42:41;2.33;;;1.05;;
31306;SDS011;17935;51.120;13.132;2023-07-13T14:45:12;2.35;;;1.40;;
31306;SDS011;17935;51.120;13.132;2023-07-13T14:47:38;2.72;;;0.85;;
31306;SDS011;17935;51.120;13.132;2023-07-13T14:50:04;3.35;;;1.38;;
31306;SDS011;17935;51.120;13.132;2023-07-13T14:52:34;2.08;;;1.17;;
31306;SDS011;17935;51.120;13.132;2023-07-13T14:55:00;1.13;;;0.90;;
31306;SDS011;17935;51.120;13.132;2023-07-13T14:57:26;3.30;;;1.10;;
31306;SDS011;17935;51.120;13.132;2023-07-13T14:59:52;1.67;;;1.00;;